Sbi Macarena — D5LD7 — position and weather

sailwx.info

Track history (hours):
 
Tides and Currents Weather Stations Pressure Air Temp Water Temp Dewpoint Dewpoint Depression Visibility Wind Speed Wind Dir Waves Ship Positions

Sbi Macarena

Last reported at 2018-May-22 05:22 UTC. Time now 2018-May-22 10:08 UTC.
Position N 53°57' E 014°16'.

Length 229 m; draft 13.3 m.

Type: Cargo ship. MMSI: 636017478.

Date/timePositionNaut miles runAvg speedWind from/ knotsBaromVisibWave heightAir tempDewpointWater temp
2018-May-22 05:22N 53°57' E 014°16'7 7.2
2018-May-22 04:20N 54°04' E 014°14'5 8.1
2018-May-22 03:46N 54°09' E 014°13'3 7.3
2018-May-22 03:24N 54°11' E 014°12'13 7.0
2018-May-22 01:37N 54°21' E 013°57'2 8.6
2018-May-22 01:20N 54°23' E 013°55'510.4
2018-May-22 00:53N 54°26' E 013°50'410.9
2018-May-22 00:30N 54°30' E 013°48'510.8
2018-May-22 00:00N 54°35' E 013°43'19 9.3
2018-May-21 21:55N 54°46' E 013°16'510.8
2018-May-21 21:29N 54°46' E 013°08'510.9
2018-May-21 21:00N 54°46' E 012°59'510.8
2018-May-21 20:31N 54°47' E 012°49'510.2
2018-May-21 20:00N 54°45' E 012°41'510.6
2018-May-21 19:30N 54°42' E 012°33'510.7
2018-May-21 19:00N 54°39' E 012°25'510.5
2018-May-21 18:30N 54°36' E 012°18'810.0
2018-May-21 17:44N 54°29' E 012°14'7 9.0
2018-May-21 16:58N 54°24' E 012°05'510.2
2018-May-21 16:30N 54°25' E 011°57'510.2
2018-May-21 16:01N 54°25' E 011°48'510.3
2018-May-21 15:31N 54°27' E 011°40'510.3
2018-May-21 15:01N 54°29' E 011°32'510.1
2018-May-21 14:30N 54°32' E 011°24'5 9.9
2018-May-21 14:00N 54°34' E 011°16'5 9.4
2018-May-21 13:30N 54°36' E 011°09'5 9.8
2018-May-21 13:00N 54°35' E 011°01'510.5
2018-May-21 12:30N 54°38' E 010°53'5 9.8
2018-May-21 12:00N 54°41' E 010°46'5 9.9
2018-May-21 11:31N 54°46' E 010°48'4 8.8
2018-May-21 11:00N 54°50' E 010°50'4 8.7
2018-May-21 10:30N 54°54' E 010°51'4 8.2
2018-May-21 10:00N 54°58' E 010°56'4 8.6
2018-May-21 09:30N 55°01' E 010°59'4 8.9
2018-May-21 09:00N 55°06' E 010°59'4 8.9
2018-May-21 08:30N 55°10' E 011°00'4 8.5
2018-May-21 08:00N 55°13' E 011°06'5 9.4
2018-May-21 07:30N 55°17' E 011°03'5 9.0
2018-May-21 07:00N 55°22' E 011°02'510.2
2018-May-21 06:30N 55°26' E 010°57'510.2
2018-May-21 06:00N 55°31' E 010°52'5 9.6
2018-May-21 05:30N 55°35' E 010°49'19 8.9
2018-May-21 03:20N 55°54' E 010°53'4 9.9
2018-May-21 02:58N 55°56' E 010°59'5 9.8
2018-May-21 02:28N 56°00' E 011°03'510.2
2018-May-21 02:00N 56°04' E 011°07'5 9.8
2018-May-21 01:30N 56°08' E 011°12'510.2
2018-May-21 00:59N 56°12' E 011°18'610.6
2018-May-21 00:23N 56°18' E 011°24'1710.4
2018-May-20 22:45N 56°33' E 011°38'310.3
2018-May-20 22:30N 56°35' E 011°42'510.7
2018-May-20 22:00N 56°39' E 011°46'510.7
2018-May-20 21:30N 56°44' E 011°52'510.2
2018-May-20 21:00N 56°49' E 011°51'510.8
2018-May-20 20:30N 56°54' E 011°47'611.1
2018-May-20 20:00N 56°59' E 011°44'611.1
2018-May-20 19:31N 57°04' E 011°40'611.2
2018-May-20 19:00N 57°10' E 011°37'611.2
2018-May-20 18:31N 57°15' E 011°33'510.8
2018-May-20 18:00N 57°20' E 011°30'510.6
2018-May-20 17:30N 57°25' E 011°27'510.3
2018-May-20 17:00N 57°29' E 011°22'510.5
2018-May-20 16:30N 57°33' E 011°14'510.5
2018-May-20 16:00N 57°37' E 011°07'510.5
2018-May-20 15:30N 57°40' E 010°60'510.5
2018-May-20 15:00N 57°44' E 010°53'611.1
2018-May-20 14:30N 57°48' E 010°45'511.0
2018-May-20 14:00N 57°49' E 010°35'611.7
2018-May-20 13:31N 57°49' E 010°24'611.7
2018-May-20 13:00N 57°49' E 010°13'611.5
2018-May-20 12:30N 57°50' E 010°03'611.7
2018-May-20 12:00N 57°50' E 009°52'611.8
2018-May-20 11:30N 57°51' E 009°41'811.7
2018-May-20 10:50N 57°47' E 009°27'412.1
2018-May-20 10:30N 57°45' E 009°21'612.2
2018-May-20 10:01N 57°43' E 009°11'612.3
2018-May-20 09:30N 57°39' E 009°02'612.2
2018-May-20 09:00N 57°35' E 008°53'612.1
2018-May-20 08:29N 57°31' E 008°44'712.0
2018-May-20 07:54N 57°26' E 008°34'511.8
2018-May-20 07:30N 57°23' E 008°27'611.4
2018-May-20 06:58N 57°19' E 008°19'2411.3
2018-May-20 04:51N 57°00' E 007°52'411.2
2018-May-20 04:30N 56°57' E 007°47'611.3
2018-May-20 04:00N 56°53' E 007°40'1110.7
2018-May-20 02:59N 56°43' E 007°34'611.2
2018-May-20 02:28N 56°38' E 007°28'511.3
2018-May-20 02:00N 56°33' E 007°23'1211.4
2018-May-20 00:58N 56°24' E 007°10'24611.5
2018-May-19 03:32N 52°57' E 003°22'311.6
2018-May-19 03:16N 52°54' E 003°20'411.6
2018-May-19 02:56N 52°50' E 003°17'511.2
2018-May-19 02:30N 52°46' E 003°13'2110.5
2018-May-19 00:33N 52°27' E 002°58'1 9.9
2018-May-19 00:26N 52°26' E 002°57'10 9.4
2018-May-18 23:24N 52°18' E 002°49'4 9.4
2018-May-18 23:00N 52°15' E 002°46'24 9.7
2018-May-18 20:34N 51°52' E 002°37'110.6
2018-May-18 20:26N 51°51' E 002°37'511.0
2018-May-18 20:00N 51°46' E 002°35'510.6
2018-May-18 19:30N 51°42' E 002°31'611.2
2018-May-18 19:00N 51°37' E 002°25'611.4
2018-May-18 18:30N 51°33' E 002°18'611.9
2018-May-18 18:00N 51°29' E 002°12'612.1
2018-May-18 17:30N 51°24' E 002°05'612.3
2018-May-18 17:00N 51°20' E 001°59'612.6
2018-May-18 16:30N 51°15' E 001°52'713.1
2018-May-18 16:00N 51°10' E 001°45'613.2
2018-May-18 15:31N 51°05' E 001°39'713.5
2018-May-18 14:58N 50°59' E 001°31'2812.4
2018-May-18 12:41N 50°34' E 001°11'211.9
2018-May-18 12:29N 50°33' E 001°08'711.8
2018-May-18 11:53N 50°28' E 000°60'712.3
2018-May-18 11:20N 50°26' E 000°49'612.6
2018-May-18 10:53N 50°25' E 000°41'513.0
2018-May-18 10:28N 50°24' E 000°33'713.1
2018-May-18 09:55N 50°22' E 000°22'513.0
2018-May-18 09:30N 50°20' E 000°14'612.6
2018-May-18 09:00N 50°19' E 000°04'612.1
2018-May-18 08:30N 50°17' W 000°05'611.9
2018-May-18 08:00N 50°16' W 000°14'611.5
2018-May-18 07:30N 50°14' W 000°23'610.8
2018-May-18 06:57N 50°13' W 000°32'510.4
2018-May-18 06:30N 50°11' W 000°39'610.0
2018-May-18 05:54N 50°10' W 000°48'4 9.3
2018-May-18 05:30N 50°09' W 000°53'4 8.8
2018-May-18 05:00N 50°08' W 001°00'4 8.2
2018-May-18 04:30N 50°07' W 001°06'4 7.7
2018-May-18 04:00N 50°06' W 001°12'4 7.7
2018-May-18 03:30N 50°05' W 001°18'4 7.3
2018-May-18 03:00N 50°04' W 001°23'4 7.7
2018-May-18 02:30N 50°03' W 001°29'4 8.1
2018-May-18 02:00N 50°02' W 001°35'5 9.1
2018-May-18 01:30N 50°01' W 001°42'510.0
2018-May-18 01:00N 49°59' W 001°50'1111.3
2018-May-18 00:04N 49°57' W 002°06'312.5
2018-May-17 23:52N 49°56' W 002°09'512.8
2018-May-17 23:30N 49°55' W 002°16'713.1
2018-May-17 22:59N 49°53' W 002°27'613.2
2018-May-17 22:30N 49°51' W 002°36'713.3
2018-May-17 22:00N 49°50' W 002°46'713.3
2018-May-17 21:30N 49°48' W 002°56'713.2
2018-May-17 21:00N 49°45' W 003°05'713.3
2018-May-17 20:30N 49°42' W 003°14'713.2
2018-May-17 20:00N 49°38' W 003°23'1013.3
2018-May-17 19:14N 49°33' W 003°36'413.3
2018-May-17 18:55N 49°31' W 003°41'913.3
2018-May-17 18:17N 49°26' W 003°53'1113.2
2018-May-17 17:26N 49°21' W 004°07'612.9
2018-May-17 16:58N 49°17' W 004°15'1212.5
2018-May-17 15:58N 49°10' W 004°31'2211.7
2018-May-17 14:03N 48°59' W 005°01'410.6
2018-May-17 13:39N 48°57' W 005°06'210.4
2018-May-17 13:29N 48°56' W 005°09'510.0
2018-May-17 12:59N 48°54' W 005°15'10 9.1
2018-May-17 11:52N 48°48' W 005°29'3 8.5
2018-May-17 11:28N 48°46' W 005°33'5 8.2
2018-May-17 10:53N 48°43' W 005°38'5 8.6
2018-May-17 10:19N 48°39' W 005°41'3 8.7
2018-May-17 09:58N 48°36' W 005°43'  
Track history (hours):
 
Tides and Currents Weather Stations Pressure Air Temp Water Temp Dewpoint Dewpoint Depression Visibility Wind Speed Wind Dir Waves Ship Positions

Sbi Macarena

Last reported at 2018-May-22 05:22 UTC. Time now 2018-May-22 10:08 UTC.
Position N 53°57' E 014°16'.

Length 229 m; draft 13.3 m.

Type: Cargo ship. MMSI: 636017478.

Date/timePositionNaut miles runAvg speedWind from/ knotsBaromVisibWave heightAir tempDewpointWater temp
2018-May-22 05:22N 53°57' E 014°16'7 7.2
2018-May-22 04:20N 54°04' E 014°14'5 8.1
2018-May-22 03:46N 54°09' E 014°13'3 7.3
2018-May-22 03:24N 54°11' E 014°12'13 7.0
2018-May-22 01:37N 54°21' E 013°57'2 8.6
2018-May-22 01:20N 54°23' E 013°55'510.4
2018-May-22 00:53N 54°26' E 013°50'410.9
2018-May-22 00:30N 54°30' E 013°48'510.8
2018-May-22 00:00N 54°35' E 013°43'19 9.3
2018-May-21 21:55N 54°46' E 013°16'510.8
2018-May-21 21:29N 54°46' E 013°08'510.9
2018-May-21 21:00N 54°46' E 012°59'510.8
2018-May-21 20:31N 54°47' E 012°49'510.2
2018-May-21 20:00N 54°45' E 012°41'510.6
2018-May-21 19:30N 54°42' E 012°33'510.7
2018-May-21 19:00N 54°39' E 012°25'510.5
2018-May-21 18:30N 54°36' E 012°18'810.0
2018-May-21 17:44N 54°29' E 012°14'7 9.0
2018-May-21 16:58N 54°24' E 012°05'510.2
2018-May-21 16:30N 54°25' E 011°57'510.2
2018-May-21 16:01N 54°25' E 011°48'510.3
2018-May-21 15:31N 54°27' E 011°40'510.3
2018-May-21 15:01N 54°29' E 011°32'510.1
2018-May-21 14:30N 54°32' E 011°24'5 9.9
2018-May-21 14:00N 54°34' E 011°16'5 9.4
2018-May-21 13:30N 54°36' E 011°09'5 9.8
2018-May-21 13:00N 54°35' E 011°01'510.5
2018-May-21 12:30N 54°38' E 010°53'5 9.8
2018-May-21 12:00N 54°41' E 010°46'5 9.9
2018-May-21 11:31N 54°46' E 010°48'4 8.8
2018-May-21 11:00N 54°50' E 010°50'4 8.7
2018-May-21 10:30N 54°54' E 010°51'4 8.2
2018-May-21 10:00N 54°58' E 010°56'4 8.6
2018-May-21 09:30N 55°01' E 010°59'4 8.9
2018-May-21 09:00N 55°06' E 010°59'4 8.9
2018-May-21 08:30N 55°10' E 011°00'4 8.5
2018-May-21 08:00N 55°13' E 011°06'5 9.4
2018-May-21 07:30N 55°17' E 011°03'5 9.0
2018-May-21 07:00N 55°22' E 011°02'510.2
2018-May-21 06:30N 55°26' E 010°57'510.2
2018-May-21 06:00N 55°31' E 010°52'5 9.6
2018-May-21 05:30N 55°35' E 010°49'19 8.9
2018-May-21 03:20N 55°54' E 010°53'4 9.9
2018-May-21 02:58N 55°56' E 010°59'5 9.8
2018-May-21 02:28N 56°00' E 011°03'510.2
2018-May-21 02:00N 56°04' E 011°07'5 9.8
2018-May-21 01:30N 56°08' E 011°12'510.2
2018-May-21 00:59N 56°12' E 011°18'610.6
2018-May-21 00:23N 56°18' E 011°24'1710.4
2018-May-20 22:45N 56°33' E 011°38'310.3
2018-May-20 22:30N 56°35' E 011°42'510.7
2018-May-20 22:00N 56°39' E 011°46'510.7
2018-May-20 21:30N 56°44' E 011°52'510.2
2018-May-20 21:00N 56°49' E 011°51'510.8
2018-May-20 20:30N 56°54' E 011°47'611.1
2018-May-20 20:00N 56°59' E 011°44'611.1
2018-May-20 19:31N 57°04' E 011°40'611.2
2018-May-20 19:00N 57°10' E 011°37'611.2
2018-May-20 18:31N 57°15' E 011°33'510.8
2018-May-20 18:00N 57°20' E 011°30'510.6
2018-May-20 17:30N 57°25' E 011°27'510.3
2018-May-20 17:00N 57°29' E 011°22'510.5
2018-May-20 16:30N 57°33' E 011°14'510.5
2018-May-20 16:00N 57°37' E 011°07'510.5
2018-May-20 15:30N 57°40' E 010°60'510.5
2018-May-20 15:00N 57°44' E 010°53'611.1
2018-May-20 14:30N 57°48' E 010°45'511.0
2018-May-20 14:00N 57°49' E 010°35'611.7
2018-May-20 13:31N 57°49' E 010°24'611.7
2018-May-20 13:00N 57°49' E 010°13'611.5
2018-May-20 12:30N 57°50' E 010°03'611.7
2018-May-20 12:00N 57°50' E 009°52'611.8
2018-May-20 11:30N 57°51' E 009°41'811.7
2018-May-20 10:50N 57°47' E 009°27'412.1
2018-May-20 10:30N 57°45' E 009°21'612.2
2018-May-20 10:01N 57°43' E 009°11'612.3
2018-May-20 09:30N 57°39' E 009°02'612.2
2018-May-20 09:00N 57°35' E 008°53'612.1
2018-May-20 08:29N 57°31' E 008°44'712.0
2018-May-20 07:54N 57°26' E 008°34'511.8
2018-May-20 07:30N 57°23' E 008°27'611.4
2018-May-20 06:58N 57°19' E 008°19'2411.3
2018-May-20 04:51N 57°00' E 007°52'411.2
2018-May-20 04:30N 56°57' E 007°47'611.3
2018-May-20 04:00N 56°53' E 007°40'1110.7
2018-May-20 02:59N 56°43' E 007°34'611.2
2018-May-20 02:28N 56°38' E 007°28'511.3
2018-May-20 02:00N 56°33' E 007°23'1211.4
2018-May-20 00:58N 56°24' E 007°10'24611.5
2018-May-19 03:32N 52°57' E 003°22'311.6
2018-May-19 03:16N 52°54' E 003°20'411.6
2018-May-19 02:56N 52°50' E 003°17'511.2
2018-May-19 02:30N 52°46' E 003°13'2110.5
2018-May-19 00:33N 52°27' E 002°58'1 9.9
2018-May-19 00:26N 52°26' E 002°57'10 9.4
2018-May-18 23:24N 52°18' E 002°49'4 9.4
2018-May-18 23:00N 52°15' E 002°46'24 9.7
2018-May-18 20:34N 51°52' E 002°37'110.6
2018-May-18 20:26N 51°51' E 002°37'511.0
2018-May-18 20:00N 51°46' E 002°35'510.6
2018-May-18 19:30N 51°42' E 002°31'611.2
2018-May-18 19:00N 51°37' E 002°25'611.4
2018-May-18 18:30N 51°33' E 002°18'611.9
2018-May-18 18:00N 51°29' E 002°12'612.1
2018-May-18 17:30N 51°24' E 002°05'612.3
2018-May-18 17:00N 51°20' E 001°59'612.6
2018-May-18 16:30N 51°15' E 001°52'713.1
2018-May-18 16:00N 51°10' E 001°45'613.2
2018-May-18 15:31N 51°05' E 001°39'713.5
2018-May-18 14:58N 50°59' E 001°31'2812.4
2018-May-18 12:41N 50°34' E 001°11'211.9
2018-May-18 12:29N 50°33' E 001°08'711.8
2018-May-18 11:53N 50°28' E 000°60'712.3
2018-May-18 11:20N 50°26' E 000°49'612.6
2018-May-18 10:53N 50°25' E 000°41'513.0
2018-May-18 10:28N 50°24' E 000°33'713.1
2018-May-18 09:55N 50°22' E 000°22'513.0
2018-May-18 09:30N 50°20' E 000°14'612.6
2018-May-18 09:00N 50°19' E 000°04'612.1
2018-May-18 08:30N 50°17' W 000°05'611.9
2018-May-18 08:00N 50°16' W 000°14'611.5
2018-May-18 07:30N 50°14' W 000°23'610.8
2018-May-18 06:57N 50°13' W 000°32'510.4
2018-May-18 06:30N 50°11' W 000°39'610.0
2018-May-18 05:54N 50°10' W 000°48'4 9.3
2018-May-18 05:30N 50°09' W 000°53'4 8.8
2018-May-18 05:00N 50°08' W 001°00'4 8.2
2018-May-18 04:30N 50°07' W 001°06'4 7.7
2018-May-18 04:00N 50°06' W 001°12'4 7.7
2018-May-18 03:30N 50°05' W 001°18'4 7.3
2018-May-18 03:00N 50°04' W 001°23'4 7.7
2018-May-18 02:30N 50°03' W 001°29'4 8.1
2018-May-18 02:00N 50°02' W 001°35'5 9.1
2018-May-18 01:30N 50°01' W 001°42'510.0
2018-May-18 01:00N 49°59' W 001°50'1111.3
2018-May-18 00:04N 49°57' W 002°06'312.5
2018-May-17 23:52N 49°56' W 002°09'512.8
2018-May-17 23:30N 49°55' W 002°16'713.1
2018-May-17 22:59N 49°53' W 002°27'613.2
2018-May-17 22:30N 49°51' W 002°36'713.3
2018-May-17 22:00N 49°50' W 002°46'713.3
2018-May-17 21:30N 49°48' W 002°56'713.2
2018-May-17 21:00N 49°45' W 003°05'713.3
2018-May-17 20:30N 49°42' W 003°14'713.2
2018-May-17 20:00N 49°38' W 003°23'1013.3
2018-May-17 19:14N 49°33' W 003°36'413.3
2018-May-17 18:55N 49°31' W 003°41'913.3
2018-May-17 18:17N 49°26' W 003°53'1113.2
2018-May-17 17:26N 49°21' W 004°07'612.9
2018-May-17 16:58N 49°17' W 004°15'1212.5
2018-May-17 15:58N 49°10' W 004°31'2211.7
2018-May-17 14:03N 48°59' W 005°01'410.6
2018-May-17 13:39N 48°57' W 005°06'210.4
2018-May-17 13:29N 48°56' W 005°09'510.0
2018-May-17 12:59N 48°54' W 005°15'10 9.1
2018-May-17 11:52N 48°48' W 005°29'3 8.5
2018-May-17 11:28N 48°46' W 005°33'5 8.2
2018-May-17 10:53N 48°43' W 005°38'5 8.6
2018-May-17 10:19N 48°39' W 005°41'3 8.7
2018-May-17 09:58N 48°36' W 005°43'  

Dump ship's entire track history